sensor_id;sensor_type;location;lat;lon;timestamp;temperature;humidity
25468;DHT22;13384;24.794;110.498;2023-07-02T00:00:42;28.60;99.90
25468;DHT22;13384;24.794;110.498;2023-07-02T00:03:13;28.70;99.90
25468;DHT22;13384;24.794;110.498;2023-07-02T00:05:45;28.60;99.90
25468;DHT22;13384;24.794;110.498;2023-07-02T00:08:23;28.60;99.90
25468;DHT22;13384;24.794;110.498;2023-07-02T00:10:54;28.70;99.90
25468;DHT22;13384;24.794;110.498;2023-07-02T00:13:26;28.60;99.90
25468;DHT22;13384;24.794;110.498;2023-07-02T00:15:57;28.70;99.90
25468;DHT22;13384;24.794;110.498;2023-07-02T00:18:29;28.60;99.90
25468;DHT22;13384;24.794;110.498;2023-07-02T00:21:06;28.60;99.90
25468;DHT22;13384;24.794;110.498;2023-07-02T00:23:37;28.60;99.90
25468;DHT22;13384;24.794;110.498;2023-07-02T00:26:09;28.70;99.90
25468;DHT22;13384;24.794;110.498;2023-07-02T00:28:40;28.80;99.90
25468;DHT22;13384;24.794;110.498;2023-07-02T00:31:12;28.90;99.90
25468;DHT22;13384;24.794;110.498;2023-07-02T00:33:44;28.90;99.90
25468;DHT22;13384;24.794;110.498;2023-07-02T00:36:15;28.90;99.90
25468;DHT22;13384;24.794;110.498;2023-07-02T00:38:48;29.10;99.90
25468;DHT22;13384;24.794;110.498;2023-07-02T00:41:19;29.10;99.90
25468;DHT22;13384;24.794;110.498;2023-07-02T00:43:51;29.00;99.90
25468;DHT22;13384;24.794;110.498;2023-07-02T00:46:25;29.00;99.90
25468;DHT22;13384;24.794;110.498;2023-07-02T00:48:58;28.90;99.90
25468;DHT22;13384;24.794;110.498;2023-07-02T00:51:30;28.90;99.90
25468;DHT22;13384;24.794;110.498;2023-07-02T00:54:02;28.90;99.90
25468;DHT22;13384;24.794;110.498;2023-07-02T00:56:34;28.90;99.90
25468;DHT22;13384;24.794;110.498;2023-07-02T00:59:05;28.90;99.90
25468;DHT22;13384;24.794;110.498;2023-07-02T01:01:37;29.00;99.90
25468;DHT22;13384;24.794;110.498;2023-07-02T01:04:09;28.80;99.90
25468;DHT22;13384;24.794;110.498;2023-07-02T01:06:42;28.80;99.90
25468;DHT22;13384;24.794;110.498;2023-07-02T01:09:14;28.90;99.90
25468;DHT22;13384;24.794;110.498;2023-07-02T01:11:49;28.90;99.90
25468;DHT22;13384;24.794;110.498;2023-07-02T01:14:41;28.90;99.90
25468;DHT22;13384;24.794;110.498;2023-07-02T01:17:13;28.90;99.90
25468;DHT22;13384;24.794;110.498;2023-07-02T01:19:52;28.90;99.90
25468;DHT22;13384;24.794;110.498;2023-07-02T01:22:26;28.90;99.90
25468;DHT22;13384;24.794;110.498;2023-07-02T01:24:58;28.90;99.90
25468;DHT22;13384;24.794;110.498;2023-07-02T01:27:30;28.80;99.90
25468;DHT22;13384;24.794;110.498;2023-07-02T01:30:02;28.80;99.90
25468;DHT22;13384;24.794;110.498;2023-07-02T01:32:35;28.90;99.90
25468;DHT22;13384;24.794;110.498;2023-07-02T01:35:07;28.80;99.90
25468;DHT22;13384;24.794;110.498;2023-07-02T01:37:39;28.80;99.90
25468;DHT22;13384;24.794;110.498;2023-07-02T01:40:11;29.00;99.90
25468;DHT22;13384;24.794;110.498;2023-07-02T01:42:42;29.00;99.90
25468;DHT22;13384;24.794;110.498;2023-07-02T01:45:14;29.10;99.90
25468;DHT22;13384;24.794;110.498;2023-07-02T01:47:45;29.10;99.90
25468;DHT22;13384;24.794;110.498;2023-07-02T01:50:16;29.10;99.90
25468;DHT22;13384;24.794;110.498;2023-07-02T01:52:48;29.10;99.90
25468;DHT22;13384;24.794;110.498;2023-07-02T01:55:27;29.10;99.90
25468;DHT22;13384;24.794;110.498;2023-07-02T01:57:58;29.10;99.90
25468;DHT22;13384;24.794;110.498;2023-07-02T02:00:41;29.10;99.90
25468;DHT22;13384;24.794;110.498;2023-07-02T02:03:14;29.10;99.90
25468;DHT22;13384;24.794;110.498;2023-07-02T02:05:45;29.30;99.90
25468;DHT22;13384;24.794;110.498;2023-07-02T02:08:19;29.30;99.90
25468;DHT22;13384;24.794;110.498;2023-07-02T02:10:51;29.40;99.90
25468;DHT22;13384;24.794;110.498;2023-07-02T02:13:22;29.40;99.90
25468;DHT22;13384;24.794;110.498;2023-07-02T02:15:54;29.60;99.90
25468;DHT22;13384;24.794;110.498;2023-07-02T02:18:33;29.90;99.90
25468;DHT22;13384;24.794;110.498;2023-07-02T02:21:05;30.10;99.90
25468;DHT22;13384;24.794;110.498;2023-07-02T02:23:36;30.10;99.90
25468;DHT22;13384;24.794;110.498;2023-07-02T02:26:11;30.40;99.90
25468;DHT22;13384;24.794;110.498;2023-07-02T02:28:57;30.40;99.90
25468;DHT22;13384;24.794;110.498;2023-07-02T02:31:28;30.20;99.90
25468;DHT22;13384;24.794;110.498;2023-07-02T02:34:01;30.30;99.90
25468;DHT22;13384;24.794;110.498;2023-07-02T02:36:35;30.10;99.90
25468;DHT22;13384;24.794;110.498;2023-07-02T02:39:06;30.10;99.90
25468;DHT22;13384;24.794;110.498;2023-07-02T02:41:38;30.10;99.90
25468;DHT22;13384;24.794;110.498;2023-07-02T02:44:09;30.00;99.90
25468;DHT22;13384;24.794;110.498;2023-07-02T02:46:40;29.90;99.90
25468;DHT22;13384;24.794;110.498;2023-07-02T02:49:12;29.80;99.90
25468;DHT22;13384;24.794;110.498;2023-07-02T02:51:43;29.90;99.90
25468;DHT22;13384;24.794;110.498;2023-07-02T02:54:14;30.20;99.90
25468;DHT22;13384;24.794;110.498;2023-07-02T02:56:46;30.20;99.90
25468;DHT22;13384;24.794;110.498;2023-07-02T02:59:27;30.50;99.90
25468;DHT22;13384;24.794;110.498;2023-07-02T03:01:59;30.70;99.90
25468;DHT22;13384;24.794;110.498;2023-07-02T03:04:30;30.90;99.90
25468;DHT22;13384;24.794;110.498;2023-07-02T03:07:06;31.20;99.90
25468;DHT22;13384;24.794;110.498;2023-07-02T03:09:38;31.20;99.90
25468;DHT22;13384;24.794;110.498;2023-07-02T03:12:10;31.40;99.90
25468;DHT22;13384;24.794;110.498;2023-07-02T03:14:41;31.40;99.90
25468;DHT22;13384;24.794;110.498;2023-07-02T03:17:27;31.40;99.90
25468;DHT22;13384;24.794;110.498;2023-07-02T03:19:59;31.50;99.90
25468;DHT22;13384;24.794;110.498;2023-07-02T03:22:31;31.50;99.90
25468;DHT22;13384;24.794;110.498;2023-07-02T03:25:02;31.60;99.90
25468;DHT22;13384;24.794;110.498;2023-07-02T03:27:34;31.80;99.90
25468;DHT22;13384;24.794;110.498;2023-07-02T03:30:06;31.80;99.90
25468;DHT22;13384;24.794;110.498;2023-07-02T03:32:38;31.30;99.90
25468;DHT22;13384;24.794;110.498;2023-07-02T03:35:09;31.20;99.90
25468;DHT22;13384;24.794;110.498;2023-07-02T03:37:41;31.40;99.90
25468;DHT22;13384;24.794;110.498;2023-07-02T03:40:14;31.70;99.90
25468;DHT22;13384;24.794;110.498;2023-07-02T03:42:45;31.30;99.90
25468;DHT22;13384;24.794;110.498;2023-07-02T03:45:16;31.30;99.90
25468;DHT22;13384;24.794;110.498;2023-07-02T03:47:48;31.50;99.90
25468;DHT22;13384;24.794;110.498;2023-07-02T03:50:19;31.60;99.90
25468;DHT22;13384;24.794;110.498;2023-07-02T03:52:51;31.50;99.90
25468;DHT22;13384;24.794;110.498;2023-07-02T03:55:22;31.50;99.90
25468;DHT22;13384;24.794;110.498;2023-07-02T03:58:26;31.70;99.90
25468;DHT22;13384;24.794;110.498;2023-07-02T04:00:57;31.50;99.90
25468;DHT22;13384;24.794;110.498;2023-07-02T04:03:28;31.40;99.90
25468;DHT22;13384;24.794;110.498;2023-07-02T04:06:00;31.40;99.90
25468;DHT22;13384;24.794;110.498;2023-07-02T04:08:37;31.20;99.90
25468;DHT22;13384;24.794;110.498;2023-07-02T04:11:10;31.20;99.90
25468;DHT22;13384;24.794;110.498;2023-07-02T04:13:42;31.40;99.90
25468;DHT22;13384;24.794;110.498;2023-07-02T04:16:13;31.50;99.90
25468;DHT22;13384;24.794;110.498;2023-07-02T04:18:45;31.50;99.90
25468;DHT22;13384;24.794;110.498;2023-07-02T04:21:29;31.60;99.90
25468;DHT22;13384;24.794;110.498;2023-07-02T04:24:01;31.50;99.90
25468;DHT22;13384;24.794;110.498;2023-07-02T04:26:33;31.40;99.90
25468;DHT22;13384;24.794;110.498;2023-07-02T04:29:24;31.40;99.90
25468;DHT22;13384;24.794;110.498;2023-07-02T04:31:55;31.50;99.90
25468;DHT22;13384;24.794;110.498;2023-07-02T04:34:27;31.50;99.90
25468;DHT22;13384;24.794;110.498;2023-07-02T04:36:59;31.50;99.90
25468;DHT22;13384;24.794;110.498;2023-07-02T04:39:43;32.00;99.90
25468;DHT22;13384;24.794;110.498;2023-07-02T04:42:14;32.00;99.90
25468;DHT22;13384;24.794;110.498;2023-07-02T04:44:46;32.20;99.90
25468;DHT22;13384;24.794;110.498;2023-07-02T04:47:31;32.60;99.90
25468;DHT22;13384;24.794;110.498;2023-07-02T04:50:02;32.70;99.90
25468;DHT22;13384;24.794;110.498;2023-07-02T04:52:33;32.60;99.90
25468;DHT22;13384;24.794;110.498;2023-07-02T04:55:05;32.80;99.90
25468;DHT22;13384;24.794;110.498;2023-07-02T04:57:37;32.80;99.90
25468;DHT22;13384;24.794;110.498;2023-07-02T05:00:09;32.90;99.90
25468;DHT22;13384;24.794;110.498;2023-07-02T05:02:40;33.00;99.90
25468;DHT22;13384;24.794;110.498;2023-07-02T05:05:12;33.00;99.90
25468;DHT22;13384;24.794;110.498;2023-07-02T05:07:43;33.00;99.90
25468;DHT22;13384;24.794;110.498;2023-07-02T05:10:17;33.10;99.90
25468;DHT22;13384;24.794;110.498;2023-07-02T05:12:48;33.40;99.90
25468;DHT22;13384;24.794;110.498;2023-07-02T05:15:19;33.10;99.90
25468;DHT22;13384;24.794;110.498;2023-07-02T05:17:51;33.00;99.90
25468;DHT22;13384;24.794;110.498;2023-07-02T05:20:22;33.50;99.90
25468;DHT22;13384;24.794;110.498;2023-07-02T05:22:53;33.70;99.90
25468;DHT22;13384;24.794;110.498;2023-07-02T05:25:25;33.50;99.90
25468;DHT22;13384;24.794;110.498;2023-07-02T05:27:56;33.80;99.90
25468;DHT22;13384;24.794;110.498;2023-07-02T05:30:28;33.80;99.90
25468;DHT22;13384;24.794;110.498;2023-07-02T05:33:02;33.90;99.90
25468;DHT22;13384;24.794;110.498;2023-07-02T05:35:33;34.20;99.90
25468;DHT22;13384;24.794;110.498;2023-07-02T05:38:05;34.40;99.90
25468;DHT22;13384;24.794;110.498;2023-07-02T05:40:36;34.30;99.90
25468;DHT22;13384;24.794;110.498;2023-07-02T05:43:08;34.30;99.90
25468;DHT22;13384;24.794;110.498;2023-07-02T05:45:39;34.20;99.90
25468;DHT22;13384;24.794;110.498;2023-07-02T05:48:11;34.30;99.90
25468;DHT22;13384;24.794;110.498;2023-07-02T05:50:42;34.30;99.90
25468;DHT22;13384;24.794;110.498;2023-07-02T05:53:14;34.10;99.90
25468;DHT22;13384;24.794;110.498;2023-07-02T05:55:45;34.30;99.90
25468;DHT22;13384;24.794;110.498;2023-07-02T05:58:17;34.10;99.90
25468;DHT22;13384;24.794;110.498;2023-07-02T06:00:54;34.20;99.90
25468;DHT22;13384;24.794;110.498;2023-07-02T06:03:26;34.40;99.90
25468;DHT22;13384;24.794;110.498;2023-07-02T06:06:29;34.60;99.90
25468;DHT22;13384;24.794;110.498;2023-07-02T06:09:01;35.00;99.90
25468;DHT22;13384;24.794;110.498;2023-07-02T06:11:34;35.00;99.90
25468;DHT22;13384;24.794;110.498;2023-07-02T06:14:05;34.80;99.90
25468;DHT22;13384;24.794;110.498;2023-07-02T06:16:37;34.90;99.90
25468;DHT22;13384;24.794;110.498;2023-07-02T06:19:19;35.00;99.90
25468;DHT22;13384;24.794;110.498;2023-07-02T06:21:52;35.00;99.90
25468;DHT22;13384;24.794;110.498;2023-07-02T06:24:23;35.10;99.90
25468;DHT22;13384;24.794;110.498;2023-07-02T06:26:55;35.20;99.90
25468;DHT22;13384;24.794;110.498;2023-07-02T06:29:26;35.20;99.90
25468;DHT22;13384;24.794;110.498;2023-07-02T06:32:13;35.20;99.90
25468;DHT22;13384;24.794;110.498;2023-07-02T06:34:44;34.80;99.90
25468;DHT22;13384;24.794;110.498;2023-07-02T06:37:25;34.50;99.90
25468;DHT22;13384;24.794;110.498;2023-07-02T06:39:57;34.80;99.90
25468;DHT22;13384;24.794;110.498;2023-07-02T06:42:30;34.60;99.90
25468;DHT22;13384;24.794;110.498;2023-07-02T06:45:02;34.60;99.90
25468;DHT22;13384;24.794;110.498;2023-07-02T06:47:33;35.10;99.90
25468;DHT22;13384;24.794;110.498;2023-07-02T06:50:05;35.40;99.90
25468;DHT22;13384;24.794;110.498;2023-07-02T06:52:37;35.50;99.90
25468;DHT22;13384;24.794;110.498;2023-07-02T06:55:08;35.60;99.90
25468;DHT22;13384;24.794;110.498;2023-07-02T06:57:46;35.20;99.90
25468;DHT22;13384;24.794;110.498;2023-07-02T07:00:18;35.20;99.90
25468;DHT22;13384;24.794;110.498;2023-07-02T07:02:49;34.70;99.90
25468;DHT22;13384;24.794;110.498;2023-07-02T07:05:21;34.30;99.90
25468;DHT22;13384;24.794;110.498;2023-07-02T07:07:52;33.90;99.90
25468;DHT22;13384;24.794;110.498;2023-07-02T07:10:24;33.70;99.90
25468;DHT22;13384;24.794;110.498;2023-07-02T07:12:55;33.50;99.90
25468;DHT22;13384;24.794;110.498;2023-07-02T07:15:26;33.40;99.90
25468;DHT22;13384;24.794;110.498;2023-07-02T07:17:58;33.30;99.90
25468;DHT22;13384;24.794;110.498;2023-07-02T07:20:30;33.30;99.90
25468;DHT22;13384;24.794;110.498;2023-07-02T07:23:04;33.30;99.90
25468;DHT22;13384;24.794;110.498;2023-07-02T07:25:36;33.30;99.90
25468;DHT22;13384;24.794;110.498;2023-07-02T07:28:07;33.40;99.90
25468;DHT22;13384;24.794;110.498;2023-07-02T07:30:47;33.60;99.90
25468;DHT22;13384;24.794;110.498;2023-07-02T07:33:18;34.10;99.90
25468;DHT22;13384;24.794;110.498;2023-07-02T07:35:50;34.40;99.90
25468;DHT22;13384;24.794;110.498;2023-07-02T07:38:32;34.30;99.90
25468;DHT22;13384;24.794;110.498;2023-07-02T07:41:03;34.20;99.90
25468;DHT22;13384;24.794;110.498;2023-07-02T07:43:35;34.10;99.90
25468;DHT22;13384;24.794;110.498;2023-07-02T07:46:07;34.30;99.90
25468;DHT22;13384;24.794;110.498;2023-07-02T07:48:38;34.50;99.90
25468;DHT22;13384;24.794;110.498;2023-07-02T07:51:10;34.70;99.90
25468;DHT22;13384;24.794;110.498;2023-07-02T07:53:42;34.80;99.90
25468;DHT22;13384;24.794;110.498;2023-07-02T07:56:13;34.90;99.90
25468;DHT22;13384;24.794;110.498;2023-07-02T07:58:45;35.10;99.90
25468;DHT22;13384;24.794;110.498;2023-07-02T08:01:17;35.10;99.90
25468;DHT22;13384;24.794;110.498;2023-07-02T08:03:48;35.20;99.90
25468;DHT22;13384;24.794;110.498;2023-07-02T08:06:20;35.40;99.90
25468;DHT22;13384;24.794;110.498;2023-07-02T08:08:51;35.00;99.90
25468;DHT22;13384;24.794;110.498;2023-07-02T08:11:23;34.70;99.90
25468;DHT22;13384;24.794;110.498;2023-07-02T08:13:55;34.80;99.90
25468;DHT22;13384;24.794;110.498;2023-07-02T08:16:27;34.70;99.90
25468;DHT22;13384;24.794;110.498;2023-07-02T08:18:58;34.10;99.90
25468;DHT22;13384;24.794;110.498;2023-07-02T08:21:30;34.00;99.90
25468;DHT22;13384;24.794;110.498;2023-07-02T08:24:02;33.80;99.90
25468;DHT22;13384;24.794;110.498;2023-07-02T08:26:33;33.50;99.90
25468;DHT22;13384;24.794;110.498;2023-07-02T08:29:04;33.30;99.90
25468;DHT22;13384;24.794;110.498;2023-07-02T08:31:36;33.50;99.90
25468;DHT22;13384;24.794;110.498;2023-07-02T08:34:08;33.90;99.90
25468;DHT22;13384;24.794;110.498;2023-07-02T08:36:39;34.10;99.90
25468;DHT22;13384;24.794;110.498;2023-07-02T08:39:20;34.10;99.90
25468;DHT22;13384;24.794;110.498;2023-07-02T08:41:51;34.10;99.90
25468;DHT22;13384;24.794;110.498;2023-07-02T08:44:23;34.00;99.90
25468;DHT22;13384;24.794;110.498;2023-07-02T08:46:54;34.00;99.90
25468;DHT22;13384;24.794;110.498;2023-07-02T08:49:35;33.80;99.90
25468;DHT22;13384;24.794;110.498;2023-07-02T08:52:06;34.00;99.90
25468;DHT22;13384;24.794;110.498;2023-07-02T08:54:38;34.00;99.90
25468;DHT22;13384;24.794;110.498;2023-07-02T08:57:12;33.90;99.90
25468;DHT22;13384;24.794;110.498;2023-07-02T08:59:44;33.70;99.90
25468;DHT22;13384;24.794;110.498;2023-07-02T09:02:15;33.70;99.90
25468;DHT22;13384;24.794;110.498;2023-07-02T09:04:46;33.60;99.90
25468;DHT22;13384;24.794;110.498;2023-07-02T09:07:18;33.60;99.90
25468;DHT22;13384;24.794;110.498;2023-07-02T09:09:50;33.50;99.90
25468;DHT22;13384;24.794;110.498;2023-07-02T09:12:28;33.60;99.90
25468;DHT22;13384;24.794;110.498;2023-07-02T09:15:04;33.40;99.90
25468;DHT22;13384;24.794;110.498;2023-07-02T09:17:42;33.40;99.90
25468;DHT22;13384;24.794;110.498;2023-07-02T09:20:13;33.30;99.90
25468;DHT22;13384;24.794;110.498;2023-07-02T09:22:54;33.20;99.90
25468;DHT22;13384;24.794;110.498;2023-07-02T09:25:37;33.20;99.90
25468;DHT22;13384;24.794;110.498;2023-07-02T09:30:52;33.10;99.90
25468;DHT22;13384;24.794;110.498;2023-07-02T09:33:28;33.20;99.90
25468;DHT22;13384;24.794;110.498;2023-07-02T09:36:00;33.20;99.90
25468;DHT22;13384;24.794;110.498;2023-07-02T09:38:31;33.10;99.90
25468;DHT22;13384;24.794;110.498;2023-07-02T09:41:03;33.10;99.90
25468;DHT22;13384;24.794;110.498;2023-07-02T09:43:34;33.00;99.90
25468;DHT22;13384;24.794;110.498;2023-07-02T09:46:07;33.10;99.90
25468;DHT22;13384;24.794;110.498;2023-07-02T09:48:39;33.30;99.90
25468;DHT22;13384;24.794;110.498;2023-07-02T09:51:10;33.40;99.90
25468;DHT22;13384;24.794;110.498;2023-07-02T09:53:42;33.40;99.90
25468;DHT22;13384;24.794;110.498;2023-07-02T09:56:26;33.20;99.90
25468;DHT22;13384;24.794;110.498;2023-07-02T09:58:57;33.20;99.90
25468;DHT22;13384;24.794;110.498;2023-07-02T10:01:44;33.50;99.90
25468;DHT22;13384;24.794;110.498;2023-07-02T10:04:18;33.40;99.90
25468;DHT22;13384;24.794;110.498;2023-07-02T10:06:55;33.50;99.90
25468;DHT22;13384;24.794;110.498;2023-07-02T10:09:44;33.60;99.90
25468;DHT22;13384;24.794;110.498;2023-07-02T10:12:23;33.50;99.90
25468;DHT22;13384;24.794;110.498;2023-07-02T10:14:58;33.50;99.90
25468;DHT22;13384;24.794;110.498;2023-07-02T10:17:31;33.50;99.90
25468;DHT22;13384;24.794;110.498;2023-07-02T10:20:05;33.50;99.90
25468;DHT22;13384;24.794;110.498;2023-07-02T10:22:45;33.40;99.90
25468;DHT22;13384;24.794;110.498;2023-07-02T10:25:28;33.30;99.90
25468;DHT22;13384;24.794;110.498;2023-07-02T10:28:00;33.20;99.90
25468;DHT22;13384;24.794;110.498;2023-07-02T10:30:37;33.10;99.90
25468;DHT22;13384;24.794;110.498;2023-07-02T10:33:13;33.10;99.90
25468;DHT22;13384;24.794;110.498;2023-07-02T10:35:55;33.00;99.90
25468;DHT22;13384;24.794;110.498;2023-07-02T10:38:27;32.80;99.90
25468;DHT22;13384;24.794;110.498;2023-07-02T10:40:59;32.80;99.90
25468;DHT22;13384;24.794;110.498;2023-07-02T10:43:32;32.70;99.90
25468;DHT22;13384;24.794;110.498;2023-07-02T10:46:21;32.50;99.90
25468;DHT22;13384;24.794;110.498;2023-07-02T10:48:54;32.50;99.90
25468;DHT22;13384;24.794;110.498;2023-07-02T10:51:26;32.40;99.90
25468;DHT22;13384;24.794;110.498;2023-07-02T10:54:00;32.40;99.90
25468;DHT22;13384;24.794;110.498;2023-07-02T10:56:33;32.40;99.90
25468;DHT22;13384;24.794;110.498;2023-07-02T10:59:04;32.30;99.90
25468;DHT22;13384;24.794;110.498;2023-07-02T11:01:36;32.30;99.90
25468;DHT22;13384;24.794;110.498;2023-07-02T11:04:09;32.20;99.90
25468;DHT22;13384;24.794;110.498;2023-07-02T11:06:40;32.10;99.90
25468;DHT22;13384;24.794;110.498;2023-07-02T11:09:18;32.00;99.90
25468;DHT22;13384;24.794;110.498;2023-07-02T11:12:03;32.00;99.90
25468;DHT22;13384;24.794;110.498;2023-07-02T11:14:36;32.00;99.90
25468;DHT22;13384;24.794;110.498;2023-07-02T11:17:07;31.90;99.90
25468;DHT22;13384;24.794;110.498;2023-07-02T11:19:39;31.80;99.90
25468;DHT22;13384;24.794;110.498;2023-07-02T11:22:10;31.70;99.90
25468;DHT22;13384;24.794;110.498;2023-07-02T11:24:42;31.60;99.90
25468;DHT22;13384;24.794;110.498;2023-07-02T11:27:26;31.50;99.90
25468;DHT22;13384;24.794;110.498;2023-07-02T11:30:00;31.30;99.90
25468;DHT22;13384;24.794;110.498;2023-07-02T11:32:34;31.30;99.90
25468;DHT22;13384;24.794;110.498;2023-07-02T11:35:06;31.10;99.90
25468;DHT22;13384;24.794;110.498;2023-07-02T11:37:37;31.10;99.90
25468;DHT22;13384;24.794;110.498;2023-07-02T11:40:09;31.10;99.90
25468;DHT22;13384;24.794;110.498;2023-07-02T11:42:42;31.10;99.90
25468;DHT22;13384;24.794;110.498;2023-07-02T11:45:26;31.00;99.90
25468;DHT22;13384;24.794;110.498;2023-07-02T11:47:58;31.00;99.90
25468;DHT22;13384;24.794;110.498;2023-07-02T11:50:37;30.90;99.90
25468;DHT22;13384;24.794;110.498;2023-07-02T11:53:08;30.80;99.90
25468;DHT22;13384;24.794;110.498;2023-07-02T11:55:52;30.70;99.90
25468;DHT22;13384;24.794;110.498;2023-07-02T11:58:24;30.70;99.90
25468;DHT22;13384;24.794;110.498;2023-07-02T12:00:55;30.70;99.90
25468;DHT22;13384;24.794;110.498;2023-07-02T12:03:27;30.70;99.90
25468;DHT22;13384;24.794;110.498;2023-07-02T12:06:04;30.60;99.90
25468;DHT22;13384;24.794;110.498;2023-07-02T12:08:38;30.70;99.90
25468;DHT22;13384;24.794;110.498;2023-07-02T12:11:11;30.60;99.90
25468;DHT22;13384;24.794;110.498;2023-07-02T12:13:42;30.60;99.90
25468;DHT22;13384;24.794;110.498;2023-07-02T12:16:14;30.60;99.90
25468;DHT22;13384;24.794;110.498;2023-07-02T12:18:45;30.50;99.90
25468;DHT22;13384;24.794;110.498;2023-07-02T12:21:17;30.40;99.90
25468;DHT22;13384;24.794;110.498;2023-07-02T12:23:49;30.40;99.90
25468;DHT22;13384;24.794;110.498;2023-07-02T12:26:20;30.30;99.90
25468;DHT22;13384;24.794;110.498;2023-07-02T12:28:52;30.30;99.90
25468;DHT22;13384;24.794;110.498;2023-07-02T12:31:24;30.20;99.90
25468;DHT22;13384;24.794;110.498;2023-07-02T12:33:55;30.20;99.90
25468;DHT22;13384;24.794;110.498;2023-07-02T12:36:26;30.20;99.90
25468;DHT22;13384;24.794;110.498;2023-07-02T12:38:58;30.20;99.90
25468;DHT22;13384;24.794;110.498;2023-07-02T12:41:29;30.10;99.90
25468;DHT22;13384;24.794;110.498;2023-07-02T12:44:01;30.00;99.90
25468;DHT22;13384;24.794;110.498;2023-07-02T12:46:32;30.00;99.90
25468;DHT22;13384;24.794;110.498;2023-07-02T12:49:04;30.00;99.90
25468;DHT22;13384;24.794;110.498;2023-07-02T12:51:37;30.00;99.90
25468;DHT22;13384;24.794;110.498;2023-07-02T12:54:08;30.00;99.90
25468;DHT22;13384;24.794;110.498;2023-07-02T12:56:40;30.00;99.90
25468;DHT22;13384;24.794;110.498;2023-07-02T12:59:11;30.00;99.90
25468;DHT22;13384;24.794;110.498;2023-07-02T13:01:45;30.00;99.90
25468;DHT22;13384;24.794;110.498;2023-07-02T13:04:17;30.00;99.90
25468;DHT22;13384;24.794;110.498;2023-07-02T13:06:49;30.00;99.90
25468;DHT22;13384;24.794;110.498;2023-07-02T13:09:21;30.00;99.90
25468;DHT22;13384;24.794;110.498;2023-07-02T13:11:53;30.00;99.90
25468;DHT22;13384;24.794;110.498;2023-07-02T13:14:25;30.00;99.90
25468;DHT22;13384;24.794;110.498;2023-07-02T13:16:56;29.90;99.90
25468;DHT22;13384;24.794;110.498;2023-07-02T13:19:29;29.80;99.90
25468;DHT22;13384;24.794;110.498;2023-07-02T13:22:01;29.80;99.90
25468;DHT22;13384;24.794;110.498;2023-07-02T13:24:34;29.80;99.90
25468;DHT22;13384;24.794;110.498;2023-07-02T13:27:13;29.80;99.90
25468;DHT22;13384;24.794;110.498;2023-07-02T13:29:45;29.80;99.90
25468;DHT22;13384;24.794;110.498;2023-07-02T13:32:16;29.80;99.90
25468;DHT22;13384;24.794;110.498;2023-07-02T13:34:47;29.80;99.90
25468;DHT22;13384;24.794;110.498;2023-07-02T13:37:19;29.80;99.90
25468;DHT22;13384;24.794;110.498;2023-07-02T13:39:51;29.70;99.90
25468;DHT22;13384;24.794;110.498;2023-07-02T13:42:23;29.70;99.90
25468;DHT22;13384;24.794;110.498;2023-07-02T13:44:55;29.70;99.90
25468;DHT22;13384;24.794;110.498;2023-07-02T13:47:26;29.70;99.90
25468;DHT22;13384;24.794;110.498;2023-07-02T13:49:59;29.70;99.90
25468;DHT22;13384;24.794;110.498;2023-07-02T13:52:31;29.70;99.90
25468;DHT22;13384;24.794;110.498;2023-07-02T13:55:03;29.60;99.90
25468;DHT22;13384;24.794;110.498;2023-07-02T13:57:51;29.70;99.90
25468;DHT22;13384;24.794;110.498;2023-07-02T14:00:23;29.70;99.90
25468;DHT22;13384;24.794;110.498;2023-07-02T14:02:55;29.70;99.90
25468;DHT22;13384;24.794;110.498;2023-07-02T14:05:28;29.70;99.90
25468;DHT22;13384;24.794;110.498;2023-07-02T14:08:00;29.70;99.90
25468;DHT22;13384;24.794;110.498;2023-07-02T14:10:31;29.60;99.90
25468;DHT22;13384;24.794;110.498;2023-07-02T14:13:04;29.70;99.90
25468;DHT22;13384;24.794;110.498;2023-07-02T14:15:36;29.70;99.90
25468;DHT22;13384;24.794;110.498;2023-07-02T14:18:07;29.80;99.90
25468;DHT22;13384;24.794;110.498;2023-07-02T14:20:39;29.60;99.90
25468;DHT22;13384;24.794;110.498;2023-07-02T14:23:10;29.50;99.90
25468;DHT22;13384;24.794;110.498;2023-07-02T14:26:02;29.40;99.90
25468;DHT22;13384;24.794;110.498;2023-07-02T14:28:33;29.40;99.90
25468;DHT22;13384;24.794;110.498;2023-07-02T14:31:05;29.40;99.90
25468;DHT22;13384;24.794;110.498;2023-07-02T14:33:38;29.30;99.90
25468;DHT22;13384;24.794;110.498;2023-07-02T14:36:10;29.10;99.90
25468;DHT22;13384;24.794;110.498;2023-07-02T14:38:41;29.00;99.90
25468;DHT22;13384;24.794;110.498;2023-07-02T14:41:13;29.10;99.90
25468;DHT22;13384;24.794;110.498;2023-07-02T14:43:44;29.10;99.90
25468;DHT22;13384;24.794;110.498;2023-07-02T14:46:16;29.10;99.90
25468;DHT22;13384;24.794;110.498;2023-07-02T14:48:48;29.00;99.90
25468;DHT22;13384;24.794;110.498;2023-07-02T14:51:19;29.00;99.90
25468;DHT22;13384;24.794;110.498;2023-07-02T14:53:51;29.00;99.90
25468;DHT22;13384;24.794;110.498;2023-07-02T14:56:23;28.90;99.90
25468;DHT22;13384;24.794;110.498;2023-07-02T14:59:00;28.90;99.90
25468;DHT22;13384;24.794;110.498;2023-07-02T15:01:32;28.80;99.90
25468;DHT22;13384;24.794;110.498;2023-07-02T15:04:16;28.90;99.90
25468;DHT22;13384;24.794;110.498;2023-07-02T15:06:49;28.70;99.90
25468;DHT22;13384;24.794;110.498;2023-07-02T15:09:21;28.60;99.90
25468;DHT22;13384;24.794;110.498;2023-07-02T15:11:53;28.70;99.90
25468;DHT22;13384;24.794;110.498;2023-07-02T15:14:24;28.60;99.90
25468;DHT22;13384;24.794;110.498;2023-07-02T15:16:55;28.80;99.90
25468;DHT22;13384;24.794;110.498;2023-07-02T15:19:27;28.70;99.90
25468;DHT22;13384;24.794;110.498;2023-07-02T15:21:58;28.60;99.90
25468;DHT22;13384;24.794;110.498;2023-07-02T15:24:30;28.60;99.90
25468;DHT22;13384;24.794;110.498;2023-07-02T15:27:05;28.50;99.90
25468;DHT22;13384;24.794;110.498;2023-07-02T15:29:37;28.50;99.90
25468;DHT22;13384;24.794;110.498;2023-07-02T15:32:11;28.50;99.90
25468;DHT22;13384;24.794;110.498;2023-07-02T15:34:42;28.50;99.90
25468;DHT22;13384;24.794;110.498;2023-07-02T15:37:14;28.60;99.90
25468;DHT22;13384;24.794;110.498;2023-07-02T15:40:06;28.50;99.90
25468;DHT22;13384;24.794;110.498;2023-07-02T15:42:38;28.50;99.90